Time;durP1;ratioP1;P1;durP2;ratioP2;P2;SDS_P1;SDS_P2;PMS_P1;PMS_P2;Temp;Humidity;BMP_temperature;BMP_pressure;BME280_temperature;BME280_humidity;BME280_pressure;Samples;Min_cycle;Max_cycle;Signal;HPM_P1;HPM_P2
2023/08/01 00:01:06;;;;;;;6.00;5.00;;;;;;;;;;5056890;28;20382;-83
2023/08/01 00:03:32;;;;;;;5.25;4.40;;;;;;;;;;5057337;28;20385;-83
2023/08/01 00:05:58;;;;;;;4.80;4.40;;;;;;;;;;5057141;28;20386;-83
2023/08/01 00:08:24;;;;;;;5.53;5.00;;;;;;;;;;5056977;28;20464;-83
2023/08/01 00:10:50;;;;;;;5.47;4.97;;;;;;;;;;5052535;28;20468;-83
2023/08/01 00:13:16;;;;;;;5.20;4.55;;;;;;;;;;5057565;28;20410;-83
2023/08/01 00:15:42;;;;;;;5.20;4.70;;;;;;;;;;5057548;28;20431;-83
2023/08/01 00:18:08;;;;;;;5.20;4.70;;;;;;;;;;5057338;28;20412;-83
2023/08/01 00:20:34;;;;;;;5.22;4.72;;;;;;;;;;5057283;28;20404;-83
2023/08/01 00:23:00;;;;;;;5.20;4.70;;;;;;;;;;5057195;28;20843;-83
2023/08/01 00:25:26;;;;;;;5.35;4.85;;;;;;;;;;5056735;28;20385;-83
2023/08/01 00:27:53;;;;;;;6.15;4.97;;;;;;;;;;5056978;28;20467;-83
2023/08/01 00:30:19;;;;;;;5.88;5.28;;;;;;;;;;5057381;28;20381;-83
2023/08/01 00:32:45;;;;;;;5.72;5.18;;;;;;;;;;5055675;28;20414;-83
2023/08/01 00:35:11;;;;;;;5.28;4.63;;;;;;;;;;5056877;28;20435;-83
2023/08/01 00:37:38;;;;;;;6.47;5.05;;;;;;;;;;5056987;28;20389;-83
2023/08/01 00:40:04;;;;;;;5.50;4.93;;;;;;;;;;5056521;28;20412;-83
2023/08/01 00:42:30;;;;;;;7.38;5.13;;;;;;;;;;5056490;28;20377;-83
2023/08/01 00:44:56;;;;;;;5.53;5.03;;;;;;;;;;5057299;28;20842;-83
2023/08/01 00:47:22;;;;;;;5.10;4.60;;;;;;;;;;5057314;28;20476;-83
2023/08/01 00:49:49;;;;;;;5.15;4.65;;;;;;;;;;5057172;28;20386;-83
2023/08/01 00:52:15;;;;;;;5.47;4.97;;;;;;;;;;5056213;28;20511;-83
2023/08/01 00:54:41;;;;;;;5.00;4.50;;;;;;;;;;5056852;28;20467;-83
2023/08/01 00:57:07;;;;;;;8.10;4.97;;;;;;;;;;5056501;28;20472;-83
2023/08/01 00:59:34;;;;;;;5.13;4.70;;;;;;;;;;5056760;28;20417;-83
2023/08/01 01:02:00;;;;;;;4.70;4.22;;;;;;;;;;5056277;28;20792;-83
2023/08/01 01:04:27;;;;;;;4.88;4.45;;;;;;;;;;5056141;28;20382;-83
2023/08/01 01:06:56;;;;;;;5.05;4.55;;;;;;;;;;5056662;28;20377;-83
2023/08/01 01:09:22;;;;;;;4.75;4.35;;;;;;;;;;5056099;28;20389;-83
2023/08/01 01:11:48;;;;;;;4.45;4.13;;;;;;;;;;5056105;28;20413;-83
2023/08/01 01:14:14;;;;;;;5.28;4.05;;;;;;;;;;5056007;28;20756;-83
2023/08/01 01:16:40;;;;;;;5.32;4.82;;;;;;;;;;5055381;28;20393;-83
2023/08/01 01:19:08;;;;;;;5.35;4.45;;;;;;;;;;5055446;28;20385;-83
2023/08/01 01:21:35;;;;;;;4.95;4.38;;;;;;;;;;5055718;28;20401;-83
2023/08/01 01:24:02;;;;;;;5.75;4.43;;;;;;;;;;5056156;28;20389;-83
2023/08/01 01:26:28;;;;;;;6.25;4.82;;;;;;;;;;5056162;28;20404;-83
2023/08/01 01:28:55;;;;;;;4.90;4.30;;;;;;;;;;5055645;28;20452;-83
2023/08/01 01:31:21;;;;;;;5.63;4.40;;;;;;;;;;5055908;28;20416;-83
2023/08/01 01:33:47;;;;;;;4.85;4.20;;;;;;;;;;5055797;28;20417;-83
2023/08/01 01:36:13;;;;;;;4.80;4.30;;;;;;;;;;5056398;28;20467;-83
2023/08/01 01:38:39;;;;;;;5.00;4.03;;;;;;;;;;5056541;28;20539;-83
2023/08/01 01:41:05;;;;;;;4.70;4.30;;;;;;;;;;5054730;28;20404;-83
2023/08/01 01:43:31;;;;;;;4.40;4.00;;;;;;;;;;5055640;28;20843;-83
2023/08/01 01:45:57;;;;;;;5.10;4.60;;;;;;;;;;5056320;28;20466;-83
2023/08/01 01:48:23;;;;;;;4.50;4.10;;;;;;;;;;5054567;28;20385;-83
2023/08/01 01:50:49;;;;;;;5.38;4.50;;;;;;;;;;5055357;28;21043;-83
2023/08/01 01:53:15;;;;;;;4.53;4.05;;;;;;;;;;5055407;28;20460;-83
2023/08/01 01:55:41;;;;;;;4.93;4.53;;;;;;;;;;5055787;28;20381;-83
2023/08/01 01:58:07;;;;;;;5.20;4.70;;;;;;;;;;5055774;28;20377;-83
2023/08/01 02:00:33;;;;;;;4.53;4.00;;;;;;;;;;5055685;28;20473;-83
2023/08/01 02:03:00;;;;;;;4.63;4.13;;;;;;;;;;5055457;28;20449;-83
2023/08/01 02:05:26;;;;;;;4.18;3.80;;;;;;;;;;5055129;28;20389;-83
2023/08/01 02:07:52;;;;;;;5.20;4.30;;;;;;;;;;5055129;28;20381;-83
2023/08/01 02:10:18;;;;;;;4.60;4.20;;;;;;;;;;5055093;28;20824;-83
2023/08/01 02:12:44;;;;;;;4.47;4.07;;;;;;;;;;5055514;28;20417;-83
2023/08/01 02:15:10;;;;;;;5.20;4.70;;;;;;;;;;5056059;28;20847;-83
2023/08/01 02:17:36;;;;;;;4.70;4.30;;;;;;;;;;5055421;28;20385;-83
2023/08/01 02:20:02;;;;;;;5.15;4.65;;;;;;;;;;5055701;28;20388;-83
2023/08/01 02:22:28;;;;;;;4.73;4.23;;;;;;;;;;5055026;28;20850;-83
2023/08/01 02:24:55;;;;;;;5.10;4.60;;;;;;;;;;5053705;28;20425;-83
2023/08/01 02:27:21;;;;;;;6.00;5.07;;;;;;;;;;5055011;28;20400;-83
2023/08/01 02:29:49;;;;;;;5.57;4.95;;;;;;;;;;5055065;28;20373;-83
2023/08/01 02:32:15;;;;;;;6.03;5.43;;;;;;;;;;5054534;28;20467;-83
2023/08/01 02:34:41;;;;;;;5.75;5.13;;;;;;;;;;5055204;28;20390;-83
2023/08/01 02:37:07;;;;;;;5.80;4.20;;;;;;;;;;5054978;28;20385;-83
2023/08/01 02:39:33;;;;;;;6.23;4.90;;;;;;;;;;5054606;28;20447;-83
2023/08/01 02:41:59;;;;;;;5.85;4.97;;;;;;;;;;5054996;28;20855;-83
2023/08/01 02:44:25;;;;;;;5.97;4.72;;;;;;;;;;5055409;28;20469;-83
2023/08/01 02:46:51;;;;;;;6.22;5.10;;;;;;;;;;5054428;28;20855;-83
2023/08/01 02:49:17;;;;;;;5.50;5.00;;;;;;;;;;5054379;28;20408;-83
2023/08/01 02:51:43;;;;;;;6.80;4.82;;;;;;;;;;5054501;28;20405;-83
2023/08/01 02:54:09;;;;;;;4.95;4.45;;;;;;;;;;5054631;28;20850;-83
2023/08/01 02:56:37;;;;;;;4.95;4.47;;;;;;;;;;5054109;28;20394;-83
2023/08/01 02:59:04;;;;;;;4.97;4.47;;;;;;;;;;5054239;28;20388;-83
2023/08/01 03:01:30;;;;;;;5.25;4.47;;;;;;;;;;5054189;28;20400;-83
2023/08/01 03:03:56;;;;;;;5.05;4.53;;;;;;;;;;5053776;28;20734;-83
2023/08/01 03:06:22;;;;;;;5.95;4.60;;;;;;;;;;5054392;28;20388;-83
2023/08/01 03:08:48;;;;;;;5.53;4.50;;;;;;;;;;5054673;28;20723;-83
2023/08/01 03:11:14;;;;;;;4.53;4.13;;;;;;;;;;5054562;28;20464;-83
2023/08/01 03:13:40;;;;;;;5.03;4.05;;;;;;;;;;5055405;28;20464;-83
2023/08/01 03:16:06;;;;;;;4.65;4.05;;;;;;;;;;5056666;28;20507;-83
2023/08/01 03:18:32;;;;;;;4.40;4.00;;;;;;;;;;5058118;28;20361;-83
2023/08/01 03:20:58;;;;;;;5.22;4.25;;;;;;;;;;5057698;28;20417;-83
2023/08/01 03:23:24;;;;;;;4.95;4.10;;;;;;;;;;5057974;28;20403;-83
2023/08/01 03:25:50;;;;;;;5.05;4.13;;;;;;;;;;5057997;28;20385;-83
2023/08/01 03:28:16;;;;;;;4.93;4.00;;;;;;;;;;5057784;28;20400;-83
2023/08/01 03:30:42;;;;;;;4.53;4.13;;;;;;;;;;5058080;28;20381;-83
2023/08/01 03:33:08;;;;;;;4.30;3.90;;;;;;;;;;5057621;28;20449;-83
2023/08/01 03:35:34;;;;;;;5.72;4.35;;;;;;;;;;5057806;28;20378;-83
2023/08/01 03:38:00;;;;;;;5.15;4.18;;;;;;;;;;5057787;28;20877;-83
2023/08/01 03:40:26;;;;;;;5.40;4.18;;;;;;;;;;5057890;28;20387;-83
2023/08/01 03:42:52;;;;;;;4.65;4.03;;;;;;;;;;5057486;28;20384;-83
2023/08/01 03:45:18;;;;;;;4.43;4.00;;;;;;;;;;5057834;28;20462;-83
2023/08/01 03:47:44;;;;;;;5.73;4.17;;;;;;;;;;5057705;28;20484;-83
2023/08/01 03:50:11;;;;;;;4.95;4.32;;;;;;;;;;5057110;28;20392;-83
2023/08/01 03:52:37;;;;;;;6.47;4.15;;;;;;;;;;5057475;28;20821;-83
2023/08/01 03:55:03;;;;;;;4.22;3.83;;;;;;;;;;5057501;28;20416;-83
2023/08/01 03:57:29;;;;;;;4.47;4.07;;;;;;;;;;5057456;28;20379;-83
2023/08/01 03:59:55;;;;;;;4.55;4.15;;;;;;;;;;5057417;28;20505;-83
2023/08/01 04:02:21;;;;;;;5.13;4.23;;;;;;;;;;5057099;28;20893;-83
2023/08/01 04:04:47;;;;;;;6.13;4.00;;;;;;;;;;5057871;28;20397;-83
2023/08/01 04:07:13;;;;;;;4.50;3.75;;;;;;;;;;5057379;28;20399;-83
2023/08/01 04:09:39;;;;;;;4.60;3.63;;;;;;;;;;5057378;28;20381;-83
2023/08/01 04:12:06;;;;;;;4.13;3.70;;;;;;;;;;5055393;28;20559;-81
2023/08/01 04:14:32;;;;;;;4.55;3.70;;;;;;;;;;5056511;28;20396;-81
2023/08/01 04:16:58;;;;;;;5.60;3.72;;;;;;;;;;5056533;28;20385;-81
2023/08/01 04:19:24;;;;;;;4.20;3.80;;;;;;;;;;5057210;28;20830;-81
2023/08/01 04:21:51;;;;;;;4.15;3.60;;;;;;;;;;5057432;28;20451;-81
2023/08/01 04:24:17;;;;;;;6.15;4.03;;;;;;;;;;5056981;28;20806;-81
2023/08/01 04:26:42;;;;;;;5.75;3.90;;;;;;;;;;5054664;28;20393;-81
2023/08/01 04:29:08;;;;;;;5.63;3.65;;;;;;;;;;5056962;28;20480;-81
2023/08/01 04:31:34;;;;;;;3.80;3.40;;;;;;;;;;5057156;28;20662;-82
2023/08/01 04:34:00;;;;;;;3.47;3.17;;;;;;;;;;5057576;28;20483;-81
2023/08/01 04:36:26;;;;;;;4.18;3.65;;;;;;;;;;5057228;28;20491;-82
2023/08/01 04:38:52;;;;;;;5.28;4.20;;;;;;;;;;5057144;28;20421;-83
2023/08/01 04:41:18;;;;;;;6.40;4.20;;;;;;;;;;5057363;28;20472;-82
2023/08/01 04:43:44;;;;;;;5.32;4.20;;;;;;;;;;5057421;28;20485;-83
2023/08/01 04:46:10;;;;;;;4.55;3.97;;;;;;;;;;5058295;28;20397;-82
2023/08/01 04:48:39;;;;;;;4.07;3.67;;;;;;;;;;5056408;28;20397;-84
2023/08/01 04:51:05;;;;;;;4.47;3.50;;;;;;;;;;5056553;28;20400;-82
2023/08/01 04:53:31;;;;;;;4.53;3.10;;;;;;;;;;5057114;28;20421;-82
2023/08/01 04:55:57;;;;;;;3.40;2.90;;;;;;;;;;5056894;28;20712;-82
2023/08/01 04:58:23;;;;;;;4.00;3.17;;;;;;;;;;5055411;28;20446;-82
2023/08/01 05:00:49;;;;;;;4.22;3.17;;;;;;;;;;5057013;28;20862;-82
2023/08/01 05:03:15;;;;;;;4.95;3.20;;;;;;;;;;5056994;28;20389;-82
2023/08/01 05:05:41;;;;;;;3.40;2.83;;;;;;;;;;5056986;28;20440;-82
2023/08/01 05:08:07;;;;;;;3.07;2.63;;;;;;;;;;5056962;28;20393;-82
2023/08/01 05:10:33;;;;;;;4.87;3.00;;;;;;;;;;5057142;28;20401;-82
2023/08/01 05:12:59;;;;;;;3.90;2.58;;;;;;;;;;5056427;28;20448;-82
2023/08/01 05:15:25;;;;;;;4.05;2.58;;;;;;;;;;5057354;28;20480;-82
2023/08/01 05:17:53;;;;;;;3.30;2.42;;;;;;;;;;5057407;28;20373;-82
2023/08/01 05:20:19;;;;;;;3.70;2.70;;;;;;;;;;5056996;28;20774;-82
2023/08/01 05:22:45;;;;;;;3.28;2.50;;;;;;;;;;5057499;28;20381;-82
2023/08/01 05:25:11;;;;;;;3.72;2.63;;;;;;;;;;5056961;28;20398;-82
2023/08/01 05:27:37;;;;;;;3.00;2.63;;;;;;;;;;5057709;28;20382;-82
2023/08/01 05:30:03;;;;;;;3.45;2.75;;;;;;;;;;5057051;28;20428;-82
2023/08/01 05:32:29;;;;;;;3.25;2.65;;;;;;;;;;5056071;28;20401;-82
2023/08/01 05:34:55;;;;;;;3.38;2.72;;;;;;;;;;5055980;28;20396;-82
2023/08/01 05:37:21;;;;;;;3.97;2.90;;;;;;;;;;5056438;28;20839;-82
2023/08/01 05:39:47;;;;;;;3.72;2.90;;;;;;;;;;5055273;28;20393;-82
2023/08/01 05:42:13;;;;;;;3.90;2.80;;;;;;;;;;5056355;28;20480;-82
2023/08/01 05:44:39;;;;;;;4.05;2.70;;;;;;;;;;5056497;28;20428;-82
2023/08/01 05:47:05;;;;;;;3.73;2.80;;;;;;;;;;5055377;28;20429;-82
2023/08/01 05:49:31;;;;;;;3.15;2.60;;;;;;;;;;5056575;28;20385;-83
2023/08/01 05:51:57;;;;;;;4.63;2.55;;;;;;;;;;5056007;28;20461;-82
2023/08/01 05:54:23;;;;;;;3.28;2.17;;;;;;;;;;5053389;28;20797;-82
2023/08/01 05:56:49;;;;;;;4.03;2.50;;;;;;;;;;5055234;28;20381;-82
2023/08/01 05:59:15;;;;;;;3.83;2.57;;;;;;;;;;5055688;28;20885;-83
2023/08/01 06:01:41;;;;;;;4.82;2.72;;;;;;;;;;5055659;28;20428;-82
2023/08/01 06:04:07;;;;;;;3.50;2.20;;;;;;;;;;5057302;28;20832;-82
2023/08/01 06:06:36;;;;;;;3.67;2.80;;;;;;;;;;5057196;28;20416;-82
2023/08/01 06:09:03;;;;;;;4.00;2.60;;;;;;;;;;5056951;28;20392;-83
2023/08/01 06:11:29;;;;;;;3.47;2.85;;;;;;;;;;5057041;28;20500;-83
2023/08/01 06:13:55;;;;;;;3.47;2.67;;;;;;;;;;5056213;28;20424;-82
2023/08/01 06:16:21;;;;;;;3.08;2.78;;;;;;;;;;5054787;28;20406;-82
2023/08/01 06:18:47;;;;;;;3.25;2.80;;;;;;;;;;5054881;28;20800;-82
2023/08/01 06:21:13;;;;;;;4.22;2.80;;;;;;;;;;5054953;28;20393;-82
2023/08/01 06:23:39;;;;;;;3.60;2.72;;;;;;;;;;5055261;28;20422;-82
2023/08/01 06:26:05;;;;;;;3.80;2.53;;;;;;;;;;5055469;28;20565;-82
2023/08/01 06:28:31;;;;;;;4.00;3.10;;;;;;;;;;5055681;28;20389;-83
2023/08/01 06:30:57;;;;;;;5.40;3.05;;;;;;;;;;5058536;28;20389;-83
2023/08/01 06:33:23;;;;;;;5.18;3.13;;;;;;;;;;5060180;28;20448;-83
2023/08/01 06:35:49;;;;;;;4.70;2.95;;;;;;;;;;5060734;28;20381;-83
2023/08/01 06:38:15;;;;;;;5.50;3.63;;;;;;;;;;5058293;28;20774;-83
2023/08/01 06:40:41;;;;;;;3.90;3.13;;;;;;;;;;5058431;28;20397;-83
2023/08/01 06:43:06;;;;;;;4.13;3.03;;;;;;;;;;5059233;28;20456;-83
2023/08/01 06:45:32;;;;;;;5.93;3.38;;;;;;;;;;5058088;28;20382;-83
2023/08/01 06:47:59;;;;;;;4.78;3.25;;;;;;;;;;5058515;28;20388;-83
2023/08/01 06:50:25;;;;;;;4.63;3.40;;;;;;;;;;5058921;28;20382;-83
2023/08/01 06:52:51;;;;;;;3.85;3.30;;;;;;;;;;5061341;28;20924;-83
2023/08/01 06:55:17;;;;;;;5.28;3.78;;;;;;;;;;5061867;28;20381;-83
2023/08/01 06:57:43;;;;;;;4.55;3.47;;;;;;;;;;5062222;28;20389;-83
2023/08/01 07:00:09;;;;;;;4.63;3.67;;;;;;;;;;5061875;28;20373;-83
2023/08/01 07:02:35;;;;;;;3.90;3.60;;;;;;;;;;5061865;28;20381;-83
2023/08/01 07:05:01;;;;;;;4.05;3.30;;;;;;;;;;5063237;28;20388;-84
2023/08/01 07:07:27;;;;;;;3.65;3.20;;;;;;;;;;5063094;28;20377;-83
2023/08/01 07:09:53;;;;;;;4.65;3.30;;;;;;;;;;5062696;28;20396;-83
2023/08/01 07:12:19;;;;;;;4.38;3.30;;;;;;;;;;5063131;28;20421;-83
2023/08/01 07:14:45;;;;;;;4.38;3.70;;;;;;;;;;5063346;28;20424;-84
2023/08/01 07:17:11;;;;;;;4.38;3.35;;;;;;;;;;5063089;28;20385;-84
2023/08/01 07:19:37;;;;;;;3.25;2.88;;;;;;;;;;5062605;28;20381;-84
2023/08/01 07:22:03;;;;;;;5.07;3.70;;;;;;;;;;5060540;28;20400;-83
2023/08/01 07:24:29;;;;;;;3.92;3.42;;;;;;;;;;5059572;28;20424;-84
2023/08/01 07:26:55;;;;;;;5.50;3.70;;;;;;;;;;5059748;28;20381;-83
2023/08/01 07:29:21;;;;;;;5.80;3.80;;;;;;;;;;5058628;28;20885;-83
2023/08/01 07:31:47;;;;;;;5.07;3.65;;;;;;;;;;5058973;28;20392;-83
2023/08/01 07:34:16;;;;;;;4.03;3.40;;;;;;;;;;5057805;28;20397;-83
2023/08/01 07:36:42;;;;;;;6.20;3.97;;;;;;;;;;5059826;28;20385;-83
2023/08/01 07:39:08;;;;;;;3.97;3.50;;;;;;;;;;5058691;28;20400;-83
2023/08/01 07:41:34;;;;;;;5.05;3.72;;;;;;;;;;5058000;28;20385;-83
2023/08/01 07:44:03;;;;;;;5.57;3.85;;;;;;;;;;5057993;28;20427;-84
2023/08/01 07:46:29;;;;;;;5.18;3.50;;;;;;;;;;5058358;28;20739;-83
2023/08/01 07:48:55;;;;;;;4.40;3.83;;;;;;;;;;5058696;28;20377;-84
2023/08/01 07:51:21;;;;;;;4.90;4.10;;;;;;;;;;5057369;28;20377;-84
2023/08/01 07:53:47;;;;;;;4.47;4.07;;;;;;;;;;5058440;28;20413;-84
2023/08/01 07:56:14;;;;;;;4.43;3.90;;;;;;;;;;5058344;28;20374;-83
2023/08/01 07:58:39;;;;;;;5.07;4.00;;;;;;;;;;5057756;28;20481;-84
2023/08/01 08:01:06;;;;;;;5.67;3.90;;;;;;;;;;5057819;28;20420;-84
2023/08/01 08:03:32;;;;;;;4.82;3.88;;;;;;;;;;5056975;28;20385;-84
2023/08/01 08:05:58;;;;;;;4.57;4.10;;;;;;;;;;5057713;28;20416;-84
2023/08/01 08:08:25;;;;;;;5.60;4.35;;;;;;;;;;5057629;28;20381;-83
2023/08/01 08:10:51;;;;;;;5.47;4.00;;;;;;;;;;5057946;28;20393;-84
2023/08/01 08:13:17;;;;;;;6.03;3.67;;;;;;;;;;5057458;28;20413;-84
2023/08/01 08:15:43;;;;;;;4.68;4.13;;;;;;;;;;5057896;28;20846;-84
2023/08/01 08:18:09;;;;;;;5.05;3.90;;;;;;;;;;5056462;28;20468;-83
2023/08/01 08:20:42;;;;;;;5.03;4.10;;;;;;;;;;5057698;28;20390;-84
2023/08/01 08:23:08;;;;;;;4.85;4.22;;;;;;;;;;5057074;28;20381;-83
2023/08/01 08:25:34;;;;;;;4.40;4.00;;;;;;;;;;5056835;28;20404;-83
2023/08/01 08:28:00;;;;;;;4.70;4.03;;;;;;;;;;5057320;28;20381;-83
2023/08/01 08:30:26;;;;;;;4.40;4.00;;;;;;;;;;5058619;28;20381;-84
2023/08/01 08:32:52;;;;;;;5.13;3.90;;;;;;;;;;5058721;28;20875;-84
2023/08/01 08:35:18;;;;;;;5.10;3.90;;;;;;;;;;5059072;28;20451;-84
2023/08/01 08:37:44;;;;;;;5.07;4.20;;;;;;;;;;5054292;28;20393;-84
2023/08/01 08:40:10;;;;;;;4.97;4.18;;;;;;;;;;5060723;28;20381;-84
2023/08/01 08:42:37;;;;;;;5.53;4.47;;;;;;;;;;5061296;28;20417;-85
2023/08/01 08:45:04;;;;;;;4.65;4.22;;;;;;;;;;5062299;28;20414;-84
2023/08/01 08:47:31;;;;;;;4.75;4.25;;;;;;;;;;5060865;28;20811;-84
2023/08/01 08:49:58;;;;;;;4.88;4.38;;;;;;;;;;5061153;28;20378;-84
2023/08/01 08:52:25;;;;;;;5.13;4.63;;;;;;;;;;5063299;28;20409;-85
2023/08/01 08:54:54;;;;;;;5.15;4.65;;;;;;;;;;5062349;28;20393;-84
2023/08/01 08:57:21;;;;;;;4.50;4.10;;;;;;;;;;5062045;28;20388;-84
2023/08/01 08:59:48;;;;;;;5.30;4.53;;;;;;;;;;5057851;28;20480;-84
2023/08/01 09:02:15;;;;;;;5.00;4.50;;;;;;;;;;5058751;28;20382;-84
2023/08/01 09:04:41;;;;;;;5.22;4.68;;;;;;;;;;5059527;28;20394;-84
2023/08/01 09:07:10;;;;;;;5.78;4.60;;;;;;;;;;5060155;28;20711;-84
2023/08/01 09:09:36;;;;;;;7.47;5.30;;;;;;;;;;5059749;28;20940;-84
2023/08/01 09:12:02;;;;;;;5.55;4.60;;;;;;;;;;5060219;28;20847;-84
2023/08/01 09:14:29;;;;;;;5.50;4.70;;;;;;;;;;5060288;28;20386;-84
2023/08/01 09:16:55;;;;;;;5.15;4.45;;;;;;;;;;5059624;28;20912;-85
2023/08/01 09:19:22;;;;;;;5.83;4.93;;;;;;;;;;5058354;28;20470;-85
2023/08/01 09:21:48;;;;;;;5.77;5.07;;;;;;;;;;5058494;28;20393;-85
2023/08/01 09:24:16;;;;;;;7.43;5.40;;;;;;;;;;5059614;28;20389;-85
2023/08/01 09:26:42;;;;;;;6.78;5.13;;;;;;;;;;5061103;28;20511;-84
2023/08/01 09:29:09;;;;;;;6.32;5.00;;;;;;;;;;5059133;28;20392;-84
2023/08/01 09:31:38;;;;;;;5.65;5.10;;;;;;;;;;5058325;28;20468;-85
2023/08/01 09:34:06;;;;;;;5.60;4.82;;;;;;;;;;5058392;28;20498;-85
2023/08/01 09:36:32;;;;;;;5.85;5.00;;;;;;;;;;5059634;28;20381;-85
2023/08/01 09:38:59;;;;;;;5.60;5.10;;;;;;;;;;5059468;28;20404;-85
2023/08/01 09:41:25;;;;;;;5.90;5.20;;;;;;;;;;5060399;28;20377;-85
2023/08/01 09:43:51;;;;;;;6.22;5.63;;;;;;;;;;5056904;28;20398;-85
2023/08/01 09:46:20;;;;;;;5.78;5.15;;;;;;;;;;5058110;28;20392;-85
2023/08/01 09:48:46;;;;;;;6.20;5.05;;;;;;;;;;5056447;28;20389;-85
2023/08/01 09:51:13;;;;;;;5.78;5.18;;;;;;;;;;5057371;28;20377;-85
2023/08/01 09:53:53;;;;;;;6.35;5.13;;;;;;;;;;5055060;28;20445;-85
2023/08/01 09:56:28;;;;;;;6.67;5.03;;;;;;;;;;5058276;28;20462;-85
2023/08/01 09:58:55;;;;;;;5.35;4.82;;;;;;;;;;5061237;28;20382;-85
2023/08/01 10:01:27;;;;;;;5.13;4.63;;;;;;;;;;5060052;28;20717;-85
2023/08/01 10:03:54;;;;;;;6.00;4.70;;;;;;;;;;5060654;28;20378;-85
2023/08/01 10:06:24;;;;;;;5.13;4.63;;;;;;;;;;5060955;28;20447;-84
2023/08/01 10:08:51;;;;;;;5.90;4.90;;;;;;;;;;5061043;28;20381;-84
2023/08/01 10:11:23;;;;;;;6.07;5.47;;;;;;;;;;5058638;28;20393;-84
2023/08/01 10:13:49;;;;;;;5.03;4.63;;;;;;;;;;5058413;28;20413;-84
2023/08/01 10:16:16;;;;;;;5.35;4.90;;;;;;;;;;5057857;28;20378;-84
2023/08/01 10:18:43;;;;;;;5.20;4.70;;;;;;;;;;5056456;28;20397;-84
2023/08/01 10:21:17;;;;;;;4.75;4.25;;;;;;;;;;5057042;28;20401;-84
2023/08/01 10:23:43;;;;;;;4.82;4.43;;;;;;;;;;5036845;28;20725;-84
2023/08/01 10:26:11;;;;;;;5.05;4.55;;;;;;;;;;5036062;28;20414;-84
2023/08/01 10:28:38;;;;;;;4.90;4.40;;;;;;;;;;5065702;28;20413;-84
2023/08/01 10:33:53;;;;;;;4.95;4.50;;;;;;;;;;5254080;22;20930;-83
2023/08/01 10:36:47;;;;;;;4.82;4.28;;;;;;;;;;5054756;28;20448;-85
2023/08/01 10:39:55;;;;;;;4.70;4.30;;;;;;;;;;5055461;28;20439;-85
2023/08/01 10:42:58;;;;;;;4.80;4.30;;;;;;;;;;5059772;22;20504;-84
2023/08/01 10:45:33;;;;;;;4.53;4.13;;;;;;;;;;5073665;28;20388;-83
2023/08/01 10:48:09;;;;;;;5.78;4.10;;;;;;;;;;5073551;28;20388;-84
2023/08/01 10:50:57;;;;;;;5.13;4.27;;;;;;;;;;5070999;28;20387;-84
2023/08/01 10:53:57;;;;;;;5.13;4.22;;;;;;;;;;5054177;28;20432;-84
2023/08/01 10:56:36;;;;;;;4.13;3.67;;;;;;;;;;5054486;28;20404;-84
2023/08/01 10:59:47;;;;;;;4.03;3.72;;;;;;;;;;5054999;28;20393;-83
2023/08/01 11:02:29;;;;;;;4.85;4.30;;;;;;;;;;5044926;28;20386;-83
2023/08/01 11:05:08;;;;;;;4.60;4.20;;;;;;;;;;5054780;28;20389;-82
2023/08/01 11:07:46;;;;;;;4.63;4.22;;;;;;;;;;5054796;28;20386;-83
2023/08/01 11:10:52;;;;;;;4.70;4.30;;;;;;;;;;5055631;28;20474;-83
2023/08/01 11:13:18;;;;;;;4.72;4.32;;;;;;;;;;5052658;28;20448;-83
2023/08/01 11:15:53;;;;;;;4.72;4.22;;;;;;;;;;5054250;28;20374;-83
2023/08/01 11:18:22;;;;;;;3.92;3.63;;;;;;;;;;5054070;28;20393;-83
2023/08/01 11:20:48;;;;;;;3.85;3.47;;;;;;;;;;5054068;28;20373;-83
2023/08/01 11:23:14;;;;;;;4.10;3.70;;;;;;;;;;5054116;28;20409;-82
2023/08/01 11:25:43;;;;;;;4.83;3.80;;;;;;;;;;5054598;28;20863;-81
2023/08/01 11:28:10;;;;;;;3.88;3.58;;;;;;;;;;5053874;28;20382;-82
2023/08/01 11:30:36;;;;;;;4.70;3.78;;;;;;;;;;5053849;28;20875;-82
2023/08/01 11:33:04;;;;;;;3.75;3.45;;;;;;;;;;5053450;28;20424;-82
2023/08/01 11:35:30;;;;;;;4.15;3.85;;;;;;;;;;5054017;28;20465;-81
2023/08/01 11:37:58;;;;;;;4.47;4.07;;;;;;;;;;5056317;28;20381;-82
2023/08/01 11:40:24;;;;;;;3.83;3.53;;;;;;;;;;5056975;28;20435;-81
2023/08/01 11:42:51;;;;;;;4.23;3.60;;;;;;;;;;5073029;28;20473;-82
2023/08/01 11:45:17;;;;;;;3.75;2.90;;;;;;;;;;5057147;28;21008;-82
2023/08/01 11:47:49;;;;;;;3.20;2.90;;;;;;;;;;5072495;28;20843;-82
2023/08/01 11:50:23;;;;;;;4.82;2.47;;;;;;;;;;5057154;28;20396;-82
2023/08/01 11:52:49;;;;;;;2.60;2.40;;;;;;;;;;5057712;28;20413;-82
2023/08/01 11:55:26;;;;;;;2.53;2.33;;;;;;;;;;5057566;28;20381;-82
2023/08/01 11:57:53;;;;;;;2.63;2.42;;;;;;;;;;5057175;28;20388;-82
2023/08/01 12:00:23;;;;;;;3.70;2.30;;;;;;;;;;5056846;28;20442;-82
2023/08/01 12:02:49;;;;;;;1.92;1.83;;;;;;;;;;5057069;28;20426;-82
2023/08/01 12:05:23;;;;;;;2.20;2.00;;;;;;;;;;5056753;28;20382;-82
2023/08/01 12:07:49;;;;;;;1.73;1.63;;;;;;;;;;5057765;28;20385;-82
2023/08/01 12:10:15;;;;;;;1.80;1.70;;;;;;;;;;5057240;28;20382;-83
2023/08/01 12:12:47;;;;;;;2.05;1.70;;;;;;;;;;5057442;28;20488;-82
2023/08/01 12:15:14;;;;;;;2.10;1.90;;;;;;;;;;5057303;28;20394;-82
2023/08/01 12:17:46;;;;;;;2.40;1.67;;;;;;;;;;5055842;28;20374;-82
2023/08/01 12:20:12;;;;;;;1.63;1.50;;;;;;;;;;5041214;28;20398;-84
2023/08/01 12:22:38;;;;;;;1.67;1.52;;;;;;;;;;5056344;28;20386;-81
2023/08/01 12:25:04;;;;;;;2.20;1.77;;;;;;;;;;5056945;28;20382;-84
2023/08/01 12:27:30;;;;;;;2.03;1.67;;;;;;;;;;5043324;28;20387;-82
2023/08/01 12:29:56;;;;;;;2.10;1.53;;;;;;;;;;5037177;28;20399;-82
2023/08/01 12:32:22;;;;;;;2.60;1.67;;;;;;;;;;5035403;28;20930;-82
2023/08/01 12:34:48;;;;;;;1.95;1.60;;;;;;;;;;5036992;28;20388;-82
2023/08/01 12:37:14;;;;;;;2.60;1.73;;;;;;;;;;5037045;28;20386;-82
2023/08/01 12:39:40;;;;;;;1.77;1.67;;;;;;;;;;5039817;28;20402;-82
2023/08/01 12:42:06;;;;;;;1.88;1.70;;;;;;;;;;5036809;28;20872;-82
2023/08/01 12:44:32;;;;;;;1.60;1.50;;;;;;;;;;5036555;28;20393;-82
2023/08/01 12:46:58;;;;;;;1.30;1.20;;;;;;;;;;5035283;28;20387;-81
2023/08/01 12:49:24;;;;;;;1.25;1.10;;;;;;;;;;5034986;28;20391;-81
2023/08/01 12:51:50;;;;;;;1.40;1.30;;;;;;;;;;5035463;28;20387;-82
2023/08/01 12:54:16;;;;;;;1.27;1.17;;;;;;;;;;5035890;28;20526;-81
2023/08/01 12:56:43;;;;;;;1.50;1.40;;;;;;;;;;5035627;28;20387;-82
2023/08/01 12:59:09;;;;;;;1.83;1.65;;;;;;;;;;5035620;28;20390;-82
2023/08/01 13:01:35;;;;;;;1.63;1.50;;;;;;;;;;5035654;28;20376;-82
2023/08/01 13:04:01;;;;;;;1.67;1.55;;;;;;;;;;5035979;28;20379;-82
2023/08/01 13:06:27;;;;;;;2.72;1.80;;;;;;;;;;5036272;28;20890;-83
2023/08/01 13:08:53;;;;;;;2.63;1.60;;;;;;;;;;5036536;28;20375;-84
2023/08/01 13:11:19;;;;;;;1.60;1.00;;;;;;;;;;5037683;28;20912;-84
2023/08/01 13:13:45;;;;;;;1.27;0.93;;;;;;;;;;5038168;28;20407;-84
2023/08/01 13:16:11;;;;;;;0.77;0.60;;;;;;;;;;5037496;28;20395;-84
2023/08/01 13:18:43;;;;;;;0.85;0.50;;;;;;;;;;5037644;28;20378;-84
2023/08/01 13:21:09;;;;;;;0.80;0.60;;;;;;;;;;5036755;28;20379;-84
2023/08/01 13:23:35;;;;;;;0.70;0.70;;;;;;;;;;5036642;28;20825;-83
2023/08/01 13:26:02;;;;;;;1.52;0.98;;;;;;;;;;5036418;28;20443;-83
2023/08/01 13:28:28;;;;;;;1.75;1.08;;;;;;;;;;5035926;28;20382;-83
2023/08/01 13:30:54;;;;;;;1.20;1.10;;;;;;;;;;5035253;28;20940;-83
2023/08/01 13:33:20;;;;;;;1.40;1.00;;;;;;;;;;5035571;28;20510;-83
2023/08/01 13:35:46;;;;;;;1.40;1.00;;;;;;;;;;5035914;28;20390;-85
2023/08/01 13:38:13;;;;;;;1.50;1.20;;;;;;;;;;5035754;28;20480;-85
2023/08/01 13:40:39;;;;;;;2.05;1.00;;;;;;;;;;5034938;28;20904;-83
2023/08/01 13:43:05;;;;;;;1.80;1.00;;;;;;;;;;5035898;28;20399;-85
2023/08/01 13:45:31;;;;;;;1.17;0.98;;;;;;;;;;5035106;28;20387;-84
2023/08/01 13:47:57;;;;;;;1.65;0.70;;;;;;;;;;5035176;28;20418;-84
2023/08/01 13:50:23;;;;;;;0.80;0.80;;;;;;;;;;5034901;28;20726;-84
2023/08/01 13:52:52;;;;;;;1.30;0.80;;;;;;;;;;5062398;23;20496;-84
2023/08/01 13:55:18;;;;;;;0.70;0.70;;;;;;;;;;5055456;28;20690;-84
2023/08/01 13:57:44;;;;;;;1.23;0.85;;;;;;;;;;5055259;28;20457;-84
2023/08/01 14:00:11;;;;;;;0.80;0.77;;;;;;;;;;5053736;28;20413;-84
2023/08/01 14:02:37;;;;;;;1.07;0.87;;;;;;;;;;5036391;28;20383;-83
2023/08/01 14:05:03;;;;;;;1.38;1.05;;;;;;;;;;5035511;28;20450;-84
2023/08/01 14:07:29;;;;;;;1.15;1.00;;;;;;;;;;5035111;28;20390;-84
2023/08/01 14:09:55;;;;;;;1.23;1.10;;;;;;;;;;5035075;28;20391;-84
2023/08/01 14:12:21;;;;;;;1.35;1.08;;;;;;;;;;5034944;28;20407;-84
2023/08/01 14:14:47;;;;;;;0.95;0.90;;;;;;;;;;5033535;28;20450;-83
2023/08/01 14:17:13;;;;;;;1.08;0.80;;;;;;;;;;5034602;28;20379;-83
2023/08/01 14:19:39;;;;;;;1.20;1.10;;;;;;;;;;5035368;28;20887;-84
2023/08/01 14:22:05;;;;;;;1.58;1.00;;;;;;;;;;5049334;28;20591;-83
2023/08/01 14:24:31;;;;;;;1.10;1.00;;;;;;;;;;5054420;28;20389;-83
2023/08/01 14:26:57;;;;;;;1.60;0.93;;;;;;;;;;5047427;28;20387;-83
2023/08/01 14:29:25;;;;;;;1.80;0.90;;;;;;;;;;5034831;28;20407;-83
2023/08/01 14:31:51;;;;;;;1.63;0.70;;;;;;;;;;5034053;28;20390;-83
2023/08/01 14:34:17;;;;;;;1.35;0.82;;;;;;;;;;5035210;28;20426;-83
2023/08/01 14:36:42;;;;;;;1.23;0.90;;;;;;;;;;5041627;28;20386;-83
2023/08/01 14:39:08;;;;;;;3.30;0.90;;;;;;;;;;5034143;28;20390;-83
2023/08/01 14:41:34;;;;;;;0.80;0.80;;;;;;;;;;5034201;28;20437;-83
2023/08/01 14:44:00;;;;;;;2.00;0.90;;;;;;;;;;5033976;28;20872;-83
2023/08/01 14:46:26;;;;;;;1.20;0.83;;;;;;;;;;5036815;28;20403;-83